Kelly, North Carolina
Current Conditions -  °F | °C
As of 7:55 AM on Wednesday 22 Oct 2014 (Local Time) from KEYF Reporting Station
Clear Clear  
Wind Chill: 50°   Ceiling: Unl
Heat Index: 50°   Visibility: 10mi
Dew Point: 42°   Wind: 7mph
Humidity: 73%   Direction: 320°NW
Pressure: 29.97"   Gusts: NA
Location:  34.47°N, 78.32°W
Report Text: KEYF 221155Z AUTO 32006KT 10SM CLR 10/06 A2997 RMK AO2 T01010055 10150 20101
Loading
Personal Weather Stations






























Interactive Weather Map
Tropical Storm Tracking
New forecast layout! Learn more

10-Day Weather Forecast

Advertisements
Track Severe Weather on mobile